createdAt,value
2023-01-06T00:00:12.844Z,12.9
2023-01-06T00:05:19.048Z,12.9
2023-01-06T00:10:25.254Z,12.9
2023-01-06T00:15:31.493Z,12.9
2023-01-06T00:20:36.702Z,12.9
2023-01-06T00:25:42.905Z,13.0
2023-01-06T00:30:49.125Z,13.0
2023-01-06T00:35:54.355Z,13.0
2023-01-06T00:41:00.562Z,13.0
2023-01-06T00:46:06.796Z,13.0
2023-01-06T00:51:12.977Z,13.1
2023-01-06T00:56:19.191Z,13.1
2023-01-06T01:01:25.490Z,13.1
2023-01-06T01:06:31.608Z,13.1
2023-01-06T01:11:37.814Z,13.1
2023-01-06T01:16:44.018Z,13.1
2023-01-06T01:21:50.229Z,13.2
2023-01-06T01:26:56.430Z,13.1
2023-01-06T01:32:02.644Z,13.2
2023-01-06T01:37:08.850Z,13.2
2023-01-06T01:42:15.057Z,13.2
2023-01-06T01:47:21.267Z,13.2
2023-01-06T01:52:27.481Z,13.2
2023-01-06T01:57:33.676Z,13.2
2023-01-06T02:02:40.105Z,13.2
2023-01-06T02:07:46.132Z,13.2
2023-01-06T02:12:52.313Z,13.2
2023-01-06T02:17:58.576Z,13.2
2023-01-06T02:23:03.754Z,13.2
2023-01-06T02:28:09.967Z,13.2
2023-01-06T02:33:15.192Z,13.2
2023-01-06T02:38:21.407Z,13.2
2023-01-06T02:43:27.613Z,13.2
2023-01-06T02:48:33.828Z,13.2
2023-01-06T02:53:40.032Z,13.2
2023-01-06T02:58:46.291Z,13.2
2023-01-06T03:03:52.440Z,13.2
2023-01-06T03:08:58.654Z,13.2
2023-01-06T03:14:04.854Z,13.2
2023-01-06T03:19:11.252Z,13.2
2023-01-06T03:24:17.276Z,13.2
2023-01-06T03:29:23.484Z,13.2
2023-01-06T03:34:29.680Z,13.2
2023-01-06T03:39:35.930Z,13.1
2023-01-06T03:44:42.114Z,13.2
2023-01-06T03:49:48.318Z,13.1
2023-01-06T03:54:54.527Z,13.1
2023-01-06T04:00:00.730Z,13.1
2023-01-06T04:05:06.950Z,13.2
2023-01-06T04:10:13.155Z,13.2
2023-01-06T04:15:19.353Z,13.2
2023-01-06T04:20:24.588Z,13.2
2023-01-06T04:25:30.802Z,13.2
2023-01-06T04:30:36.051Z,13.2
2023-01-06T04:35:42.246Z,13.2
2023-01-06T04:40:48.447Z,13.2
2023-01-06T04:45:54.749Z,13.2
2023-01-06T04:51:00.867Z,13.2
2023-01-06T04:56:07.072Z,13.2
2023-01-06T05:01:13.375Z,13.2
2023-01-06T05:06:19.493Z,13.2
2023-01-06T05:11:25.709Z,13.2
2023-01-06T05:16:32.003Z,13.2
2023-01-06T05:21:38.154Z,13.2
2023-01-06T05:26:44.335Z,13.2
2023-01-06T05:31:50.563Z,13.2
2023-01-06T05:36:56.737Z,13.2
2023-01-06T05:42:02.957Z,13.2
2023-01-06T05:47:09.154Z,13.2
2023-01-06T05:52:15.374Z,13.2
2023-01-06T05:57:21.572Z,13.2
2023-01-06T06:02:27.829Z,13.3
2023-01-06T06:07:33.991Z,13.3
2023-01-06T06:12:40.201Z,13.3
2023-01-06T06:17:45.436Z,13.3
2023-01-06T06:22:51.649Z,13.3
2023-01-06T06:27:56.884Z,13.3
2023-01-06T06:33:03.103Z,13.3
2023-01-06T06:38:09.343Z,13.3
2023-01-06T06:43:15.497Z,13.2
2023-01-06T06:48:21.707Z,13.2
2023-01-06T06:53:27.918Z,13.2
2023-01-06T06:58:33.170Z,13.2
2023-01-06T07:03:39.399Z,13.2
2023-01-06T07:08:45.568Z,13.2
2023-01-06T07:13:51.771Z,13.2
2023-01-06T07:18:57.976Z,13.2
2023-01-06T07:24:04.183Z,13.2
2023-01-06T07:29:10.388Z,13.2
2023-01-06T07:34:16.595Z,13.2
2023-01-06T07:39:22.805Z,13.2
2023-01-06T07:44:29.014Z,13.2
2023-01-06T07:49:35.219Z,13.1
2023-01-06T07:54:41.426Z,13.1
2023-01-06T07:59:47.641Z,13.1
2023-01-06T08:04:53.845Z,13.0
2023-01-06T08:10:00.110Z,13.0
2023-01-06T08:15:05.283Z,13.0
2023-01-06T08:20:11.499Z,13.0
2023-01-06T08:25:17.702Z,13.0
2023-01-06T08:30:22.946Z,13.0
2023-01-06T08:35:29.193Z,13.0
2023-01-06T08:40:35.360Z,13.0
2023-01-06T08:45:41.584Z,13.0
2023-01-06T08:50:47.770Z,13.0
2023-01-06T08:55:53.981Z,13.0
2023-01-06T09:01:00.183Z,13.0
2023-01-06T09:06:06.416Z,13.1
2023-01-06T09:11:12.611Z,13.1
2023-01-06T09:16:18.899Z,13.1
2023-01-06T09:21:25.025Z,13.1
2023-01-06T09:26:31.238Z,13.2
2023-01-06T09:31:37.510Z,13.2
2023-01-06T09:36:43.649Z,13.3
2023-01-06T09:41:49.857Z,13.4
2023-01-06T09:46:56.091Z,13.4
2023-01-06T09:52:02.290Z,13.5
2023-01-06T09:57:08.480Z,13.5
2023-01-06T10:02:14.740Z,13.6
2023-01-06T10:07:20.927Z,13.6
2023-01-06T10:12:27.113Z,13.7
2023-01-06T10:17:32.345Z,13.7
2023-01-06T10:22:38.557Z,13.7
2023-01-06T10:27:43.824Z,13.7
2023-01-06T10:32:50.015Z,13.7
2023-01-06T10:37:56.211Z,13.8
2023-01-06T10:43:02.445Z,13.9
2023-01-06T10:48:08.626Z,14.0
2023-01-06T10:53:14.833Z,14.1
2023-01-06T10:58:21.088Z,14.2
2023-01-06T11:03:33.745Z,14.3
2023-01-06T11:08:33.486Z,14.4
2023-01-06T11:13:39.689Z,14.5
2023-01-06T11:18:45.912Z,14.6
2023-01-06T11:23:52.131Z,14.6
2023-01-06T11:28:58.335Z,14.6
2023-01-06T11:34:04.554Z,14.6
2023-01-06T11:39:10.769Z,14.6
2023-01-06T11:44:16.981Z,14.6
2023-01-06T11:49:23.189Z,14.6
2023-01-06T11:54:29.405Z,14.7
2023-01-06T11:59:35.628Z,14.8
2023-01-06T12:04:41.834Z,14.9
2023-01-06T12:09:48.227Z,15.1
2023-01-06T12:14:53.296Z,15.2
2023-01-06T12:19:59.496Z,15.4
2023-01-06T12:25:04.724Z,15.5
2023-01-06T12:30:10.935Z,15.6
2023-01-06T12:35:17.357Z,15.7
2023-01-06T12:40:23.351Z,15.7
2023-01-06T12:45:29.574Z,15.8
2023-01-06T12:50:35.781Z,15.8
2023-01-06T12:55:41.983Z,15.8
2023-01-06T13:00:48.193Z,15.9
2023-01-06T13:05:54.406Z,15.9
2023-01-06T13:11:00.613Z,15.9
2023-01-06T13:16:06.818Z,15.8
2023-01-06T13:21:13.018Z,15.7
2023-01-06T13:26:19.234Z,15.7
2023-01-06T13:31:25.444Z,15.6
2023-01-06T13:36:31.678Z,15.5
2023-01-06T13:41:37.884Z,15.5
2023-01-06T13:46:44.092Z,15.4
2023-01-06T13:51:50.312Z,15.4
2023-01-06T13:56:56.739Z,15.3
2023-01-06T14:02:02.902Z,15.2
2023-01-06T14:07:08.953Z,15.1
2023-01-06T14:12:14.198Z,15.0
2023-01-06T14:17:20.411Z,15.0
2023-01-06T14:22:25.660Z,14.9
2023-01-06T14:27:31.857Z,14.9
2023-01-06T14:32:38.078Z,14.8
2023-01-06T14:37:44.294Z,14.8
2023-01-06T14:42:50.504Z,14.7
2023-01-06T14:47:56.728Z,14.6
2023-01-06T14:53:02.932Z,14.6
2023-01-06T14:58:09.275Z,14.5
2023-01-06T15:03:15.419Z,14.5
2023-01-06T15:08:21.637Z,14.4
2023-01-06T15:13:27.789Z,14.4
2023-01-06T15:18:34.000Z,14.4
2023-01-06T15:23:40.355Z,14.3
2023-01-06T15:28:46.424Z,14.3
2023-01-06T15:33:52.635Z,14.2
2023-01-06T15:38:58.857Z,14.2
2023-01-06T15:44:05.057Z,14.1
2023-01-06T15:49:11.269Z,14.1
2023-01-06T15:54:17.494Z,14.0
2023-01-06T15:59:23.688Z,13.9
2023-01-06T16:04:29.930Z,13.9
2023-01-06T16:09:35.129Z,13.8
2023-01-06T16:14:41.352Z,13.7
2023-01-06T16:19:46.583Z,13.7
2023-01-06T16:24:52.789Z,13.6
2023-01-06T16:29:59.022Z,13.6
2023-01-06T16:35:05.199Z,13.5
2023-01-06T16:40:11.411Z,13.5
2023-01-06T16:45:17.613Z,13.4
2023-01-06T16:50:23.850Z,13.4
2023-01-06T16:55:30.129Z,13.4
2023-01-06T17:00:36.243Z,13.4
2023-01-06T17:05:42.463Z,13.3
2023-01-06T17:10:48.667Z,13.3
2023-01-06T17:15:54.922Z,13.3
2023-01-06T17:21:01.088Z,13.3
2023-01-06T17:26:07.299Z,13.2
2023-01-06T17:31:13.604Z,13.2
2023-01-06T17:36:19.725Z,13.3
2023-01-06T17:41:25.917Z,13.2
2023-01-06T17:46:32.160Z,13.2
2023-01-06T17:51:38.394Z,13.2
2023-01-06T17:56:44.532Z,13.2
2023-01-06T18:01:50.782Z,13.2
2023-01-06T18:06:55.990Z,13.3
2023-01-06T18:12:02.198Z,13.3
2023-01-06T18:17:08.424Z,13.3
2023-01-06T18:22:13.642Z,13.4
2023-01-06T18:27:19.850Z,13.4
2023-01-06T18:32:26.112Z,13.4
2023-01-06T18:37:32.276Z,13.5
2023-01-06T18:42:38.543Z,13.5
2023-01-06T18:47:44.687Z,13.5
2023-01-06T18:52:50.910Z,13.6
2023-01-06T18:57:57.258Z,13.6
2023-01-06T19:03:03.313Z,13.6
2023-01-06T19:08:09.650Z,13.6
2023-01-06T19:13:15.737Z,13.6
2023-01-06T19:18:21.940Z,13.6
2023-01-06T19:23:28.146Z,13.6
2023-01-06T19:28:34.356Z,13.6
2023-01-06T19:33:40.612Z,13.5
2023-01-06T19:38:46.789Z,13.5
2023-01-06T19:43:52.992Z,13.5
2023-01-06T19:48:59.187Z,13.5
2023-01-06T19:54:05.399Z,13.4
2023-01-06T19:59:11.611Z,13.4
2023-01-06T20:04:17.820Z,13.4
2023-01-06T20:09:24.047Z,13.4
2023-01-06T20:14:29.255Z,13.4
2023-01-06T20:19:35.481Z,13.4
2023-01-06T20:24:40.704Z,13.4
2023-01-06T20:29:46.910Z,13.4
2023-01-06T20:34:53.121Z,13.4
2023-01-06T20:39:59.347Z,13.4
2023-01-06T20:45:05.564Z,13.5
2023-01-06T20:50:11.745Z,13.5
2023-01-06T20:55:17.959Z,13.5
2023-01-06T21:00:24.167Z,13.5
2023-01-06T21:05:30.371Z,13.5
2023-01-06T21:10:36.578Z,13.5
2023-01-06T21:15:42.802Z,13.5
2023-01-06T21:20:48.998Z,13.5
2023-01-06T21:25:55.207Z,13.5
2023-01-06T21:31:01.627Z,13.5
2023-01-06T21:36:07.625Z,13.5
2023-01-06T21:41:13.829Z,13.5
2023-01-06T21:46:20.237Z,13.5
2023-01-06T21:51:26.245Z,13.5
2023-01-06T21:56:32.509Z,13.4
2023-01-06T22:01:38.807Z,13.4
2023-01-06T22:06:44.874Z,13.5
2023-01-06T22:11:50.104Z,13.4
2023-01-06T22:16:57.788Z,13.4
2023-01-06T22:22:01.550Z,13.4
2023-01-06T22:27:07.855Z,13.4
2023-01-06T22:32:13.972Z,13.4
2023-01-06T22:37:20.171Z,13.4
2023-01-06T22:42:26.386Z,13.4
2023-01-06T22:47:32.605Z,13.4
2023-01-06T22:52:38.832Z,13.4
2023-01-06T22:57:45.008Z,13.4
2023-01-06T23:02:51.311Z,13.4
2023-01-06T23:07:57.438Z,13.4
2023-01-06T23:13:03.632Z,13.4
2023-01-06T23:18:09.850Z,13.4
2023-01-06T23:23:16.047Z,13.3
2023-01-06T23:28:22.265Z,13.3
2023-01-06T23:33:28.472Z,13.2
2023-01-06T23:38:34.679Z,13.2
2023-01-06T23:43:40.896Z,13.2
2023-01-06T23:48:47.109Z,13.1
2023-01-06T23:53:53.330Z,13.1
2023-01-06T23:58:59.570Z,13.1
